sensor_id;sensor_type;location;lat;lon;timestamp;P1;durP1;ratioP1;P2;durP2;ratioP2
9334;SDS011;4706;41.844;26.082;2024-02-16T00:00:07;8.00;;;7.30;;
9334;SDS011;4706;41.844;26.082;2024-02-16T00:02:36;8.98;;;8.07;;
9334;SDS011;4706;41.844;26.082;2024-02-16T00:05:02;8.25;;;7.47;;
9334;SDS011;4706;41.844;26.082;2024-02-16T00:07:30;7.28;;;6.57;;
9334;SDS011;4706;41.844;26.082;2024-02-16T00:09:55;7.72;;;6.78;;
9334;SDS011;4706;41.844;26.082;2024-02-16T00:12:21;8.60;;;7.80;;
9334;SDS011;4706;41.844;26.082;2024-02-16T00:14:47;9.30;;;7.68;;
9334;SDS011;4706;41.844;26.082;2024-02-16T00:17:13;7.57;;;6.75;;
9334;SDS011;4706;41.844;26.082;2024-02-16T00:19:38;7.22;;;6.53;;
9334;SDS011;4706;41.844;26.082;2024-02-16T00:22:04;7.78;;;6.97;;
9334;SDS011;4706;41.844;26.082;2024-02-16T00:24:32;8.07;;;7.28;;
9334;SDS011;4706;41.844;26.082;2024-02-16T00:26:58;8.15;;;7.03;;
9334;SDS011;4706;41.844;26.082;2024-02-16T00:29:25;8.75;;;7.85;;
9334;SDS011;4706;41.844;26.082;2024-02-16T00:31:52;8.20;;;7.40;;
9334;SDS011;4706;41.844;26.082;2024-02-16T00:34:18;7.88;;;7.05;;
9334;SDS011;4706;41.844;26.082;2024-02-16T00:36:44;8.27;;;7.43;;
9334;SDS011;4706;41.844;26.082;2024-02-16T00:39:09;8.07;;;7.18;;
9334;SDS011;4706;41.844;26.082;2024-02-16T00:41:35;7.35;;;6.65;;
9334;SDS011;4706;41.844;26.082;2024-02-16T00:44:00;6.72;;;6.13;;
9334;SDS011;4706;41.844;26.082;2024-02-16T00:46:26;6.63;;;5.90;;
9334;SDS011;4706;41.844;26.082;2024-02-16T00:48:51;7.53;;;6.22;;
9334;SDS011;4706;41.844;26.082;2024-02-16T00:51:19;7.75;;;6.45;;
9334;SDS011;4706;41.844;26.082;2024-02-16T00:53:45;6.72;;;6.10;;
9334;SDS011;4706;41.844;26.082;2024-02-16T00:56:11;7.10;;;6.40;;
9334;SDS011;4706;41.844;26.082;2024-02-16T00:58:40;7.05;;;6.45;;
9334;SDS011;4706;41.844;26.082;2024-02-16T01:01:06;7.38;;;6.57;;
9334;SDS011;4706;41.844;26.082;2024-02-16T01:03:35;7.10;;;6.50;;
9334;SDS011;4706;41.844;26.082;2024-02-16T01:06:02;6.93;;;6.28;;
9334;SDS011;4706;41.844;26.082;2024-02-16T01:08:28;7.25;;;6.55;;
9334;SDS011;4706;41.844;26.082;2024-02-16T01:10:54;6.80;;;6.10;;
9334;SDS011;4706;41.844;26.082;2024-02-16T01:13:20;7.55;;;6.85;;
9334;SDS011;4706;41.844;26.082;2024-02-16T01:15:46;7.22;;;6.53;;
9334;SDS011;4706;41.844;26.082;2024-02-16T01:18:11;8.82;;;6.70;;
9334;SDS011;4706;41.844;26.082;2024-02-16T01:20:37;7.32;;;6.07;;
9334;SDS011;4706;41.844;26.082;2024-02-16T01:23:03;8.25;;;6.65;;
9334;SDS011;4706;41.844;26.082;2024-02-16T01:25:30;7.10;;;6.13;;
9334;SDS011;4706;41.844;26.082;2024-02-16T01:27:57;7.10;;;6.40;;
9334;SDS011;4706;41.844;26.082;2024-02-16T01:30:23;7.47;;;6.75;;
9334;SDS011;4706;41.844;26.082;2024-02-16T01:32:48;7.43;;;6.72;;
9334;SDS011;4706;41.844;26.082;2024-02-16T01:35:14;7.00;;;6.40;;
9334;SDS011;4706;41.844;26.082;2024-02-16T01:37:40;7.60;;;6.80;;
9334;SDS011;4706;41.844;26.082;2024-02-16T01:40:07;7.60;;;6.72;;
9334;SDS011;4706;41.844;26.082;2024-02-16T01:42:38;7.50;;;6.70;;
9334;SDS011;4706;41.844;26.082;2024-02-16T01:45:04;9.23;;;7.25;;
9334;SDS011;4706;41.844;26.082;2024-02-16T01:47:30;7.85;;;7.00;;
9334;SDS011;4706;41.844;26.082;2024-02-16T01:49:56;7.90;;;7.20;;
9334;SDS011;4706;41.844;26.082;2024-02-16T01:52:21;8.07;;;7.38;;
9334;SDS011;4706;41.844;26.082;2024-02-16T01:54:47;8.10;;;7.40;;
9334;SDS011;4706;41.844;26.082;2024-02-16T01:57:12;8.45;;;7.25;;
9334;SDS011;4706;41.844;26.082;2024-02-16T01:59:39;8.30;;;7.50;;
9334;SDS011;4706;41.844;26.082;2024-02-16T02:02:05;7.97;;;7.28;;
9334;SDS011;4706;41.844;26.082;2024-02-16T02:04:32;8.30;;;7.50;;
9334;SDS011;4706;41.844;26.082;2024-02-16T02:06:58;7.82;;;7.10;;
9334;SDS011;4706;41.844;26.082;2024-02-16T02:09:23;8.18;;;7.35;;
9334;SDS011;4706;41.844;26.082;2024-02-16T02:11:49;8.50;;;7.70;;
9334;SDS011;4706;41.844;26.082;2024-02-16T02:14:14;8.30;;;7.50;;
9334;SDS011;4706;41.844;26.082;2024-02-16T02:16:40;8.50;;;7.70;;
9334;SDS011;4706;41.844;26.082;2024-02-16T02:19:06;8.80;;;7.90;;
9334;SDS011;4706;41.844;26.082;2024-02-16T02:21:31;9.38;;;7.32;;
9334;SDS011;4706;41.844;26.082;2024-02-16T02:23:57;8.68;;;7.88;;
9334;SDS011;4706;41.844;26.082;2024-02-16T02:26:22;9.35;;;8.07;;
9334;SDS011;4706;41.844;26.082;2024-02-16T02:28:48;8.48;;;7.65;;
9334;SDS011;4706;41.844;26.082;2024-02-16T02:31:13;9.13;;;8.20;;
9334;SDS011;4706;41.844;26.082;2024-02-16T02:33:39;8.57;;;7.68;;
9334;SDS011;4706;41.844;26.082;2024-02-16T02:36:05;8.13;;;7.32;;
9334;SDS011;4706;41.844;26.082;2024-02-16T02:38:30;8.75;;;7.60;;
9334;SDS011;4706;41.844;26.082;2024-02-16T02:40:56;8.93;;;8.02;;
9334;SDS011;4706;41.844;26.082;2024-02-16T02:43:22;9.60;;;8.13;;
9334;SDS011;4706;41.844;26.082;2024-02-16T02:45:48;8.80;;;8.00;;
9334;SDS011;4706;41.844;26.082;2024-02-16T02:48:13;8.38;;;7.57;;
9334;SDS011;4706;41.844;26.082;2024-02-16T02:50:39;8.93;;;7.35;;
9334;SDS011;4706;41.844;26.082;2024-02-16T02:53:04;8.25;;;7.45;;
9334;SDS011;4706;41.844;26.082;2024-02-16T02:55:30;9.32;;;8.43;;
9334;SDS011;4706;41.844;26.082;2024-02-16T02:57:55;9.95;;;8.07;;
9334;SDS011;4706;41.844;26.082;2024-02-16T03:00:22;10.50;;;8.63;;
9334;SDS011;4706;41.844;26.082;2024-02-16T03:02:48;9.38;;;8.50;;
9334;SDS011;4706;41.844;26.082;2024-02-16T03:05:14;8.77;;;7.80;;
9334;SDS011;4706;41.844;26.082;2024-02-16T03:07:40;9.85;;;8.27;;
9334;SDS011;4706;41.844;26.082;2024-02-16T03:10:06;9.45;;;7.88;;
9334;SDS011;4706;41.844;26.082;2024-02-16T03:12:34;13.52;;;8.20;;
9334;SDS011;4706;41.844;26.082;2024-02-16T03:15:00;7.70;;;6.80;;
9334;SDS011;4706;41.844;26.082;2024-02-16T03:17:25;9.27;;;8.15;;
9334;SDS011;4706;41.844;26.082;2024-02-16T03:19:51;8.88;;;7.97;;
9334;SDS011;4706;41.844;26.082;2024-02-16T03:22:17;9.68;;;8.75;;
9334;SDS011;4706;41.844;26.082;2024-02-16T03:24:42;9.18;;;8.27;;
9334;SDS011;4706;41.844;26.082;2024-02-16T03:27:09;9.40;;;8.00;;
9334;SDS011;4706;41.844;26.082;2024-02-16T03:29:35;9.07;;;8.20;;
9334;SDS011;4706;41.844;26.082;2024-02-16T03:32:01;8.73;;;7.82;;
9334;SDS011;4706;41.844;26.082;2024-02-16T03:34:27;8.93;;;7.60;;
9334;SDS011;4706;41.844;26.082;2024-02-16T03:36:53;8.15;;;7.35;;
9334;SDS011;4706;41.844;26.082;2024-02-16T03:39:19;7.90;;;7.10;;
9334;SDS011;4706;41.844;26.082;2024-02-16T03:41:45;8.63;;;7.20;;
9334;SDS011;4706;41.844;26.082;2024-02-16T03:44:13;7.75;;;6.95;;
9334;SDS011;4706;41.844;26.082;2024-02-16T03:46:41;7.68;;;6.93;;
9334;SDS011;4706;41.844;26.082;2024-02-16T03:49:07;8.13;;;7.10;;
9334;SDS011;4706;41.844;26.082;2024-02-16T03:51:33;8.65;;;7.15;;
9334;SDS011;4706;41.844;26.082;2024-02-16T03:53:59;7.95;;;7.20;;
9334;SDS011;4706;41.844;26.082;2024-02-16T03:56:25;7.78;;;6.90;;
9334;SDS011;4706;41.844;26.082;2024-02-16T03:58:50;8.40;;;6.20;;
9334;SDS011;4706;41.844;26.082;2024-02-16T04:01:15;6.85;;;6.15;;
9334;SDS011;4706;41.844;26.082;2024-02-16T04:03:41;7.85;;;6.30;;
9334;SDS011;4706;41.844;26.082;2024-02-16T04:06:07;6.93;;;6.28;;
9334;SDS011;4706;41.844;26.082;2024-02-16T04:08:33;7.25;;;6.28;;
9334;SDS011;4706;41.844;26.082;2024-02-16T04:10:59;8.43;;;6.53;;
9334;SDS011;4706;41.844;26.082;2024-02-16T04:13:24;7.00;;;6.30;;
9334;SDS011;4706;41.844;26.082;2024-02-16T04:15:50;7.07;;;6.38;;
9334;SDS011;4706;41.844;26.082;2024-02-16T04:18:15;7.65;;;5.93;;
9334;SDS011;4706;41.844;26.082;2024-02-16T04:20:41;7.13;;;6.43;;
9334;SDS011;4706;41.844;26.082;2024-02-16T04:23:06;7.32;;;6.57;;
9334;SDS011;4706;41.844;26.082;2024-02-16T04:25:32;8.43;;;7.53;;
9334;SDS011;4706;41.844;26.082;2024-02-16T04:27:57;8.32;;;7.53;;
9334;SDS011;4706;41.844;26.082;2024-02-16T04:30:24;9.23;;;7.72;;
9334;SDS011;4706;41.844;26.082;2024-02-16T04:32:49;11.55;;;8.85;;
9334;SDS011;4706;41.844;26.082;2024-02-16T04:35:15;10.63;;;9.52;;
9334;SDS011;4706;41.844;26.082;2024-02-16T04:37:40;11.02;;;9.38;;
9334;SDS011;4706;41.844;26.082;2024-02-16T04:40:06;10.18;;;8.40;;
9334;SDS011;4706;41.844;26.082;2024-02-16T04:42:32;8.93;;;8.02;;
9334;SDS011;4706;41.844;26.082;2024-02-16T04:44:58;10.23;;;8.07;;
9334;SDS011;4706;41.844;26.082;2024-02-16T04:47:26;9.38;;;8.38;;
9334;SDS011;4706;41.844;26.082;2024-02-16T04:49:52;11.38;;;8.02;;
9334;SDS011;4706;41.844;26.082;2024-02-16T04:52:17;11.43;;;9.20;;
9334;SDS011;4706;41.844;26.082;2024-02-16T04:54:43;10.80;;;8.73;;
9334;SDS011;4706;41.844;26.082;2024-02-16T04:57:08;9.25;;;8.23;;
9334;SDS011;4706;41.844;26.082;2024-02-16T04:59:34;7.38;;;6.68;;
9334;SDS011;4706;41.844;26.082;2024-02-16T05:01:59;7.72;;;6.38;;
9334;SDS011;4706;41.844;26.082;2024-02-16T05:04:25;7.60;;;6.90;;
9334;SDS011;4706;41.844;26.082;2024-02-16T05:06:50;6.85;;;6.05;;
9334;SDS011;4706;41.844;26.082;2024-02-16T05:09:17;6.90;;;6.20;;
9334;SDS011;4706;41.844;26.082;2024-02-16T05:11:43;7.15;;;6.45;;
9334;SDS011;4706;41.844;26.082;2024-02-16T05:14:10;7.13;;;6.53;;
9334;SDS011;4706;41.844;26.082;2024-02-16T05:16:43;7.03;;;6.32;;
9334;SDS011;4706;41.844;26.082;2024-02-16T05:19:11;7.22;;;6.15;;
9334;SDS011;4706;41.844;26.082;2024-02-16T05:21:37;6.95;;;6.25;;
9334;SDS011;4706;41.844;26.082;2024-02-16T05:24:02;7.72;;;7.03;;
9334;SDS011;4706;41.844;26.082;2024-02-16T05:26:28;8.57;;;6.60;;
9334;SDS011;4706;41.844;26.082;2024-02-16T05:28:54;7.20;;;6.50;;
9334;SDS011;4706;41.844;26.082;2024-02-16T05:31:19;9.30;;;7.47;;
9334;SDS011;4706;41.844;26.082;2024-02-16T05:33:45;8.13;;;7.22;;
9334;SDS011;4706;41.844;26.082;2024-02-16T05:36:15;8.43;;;7.53;;
9334;SDS011;4706;41.844;26.082;2024-02-16T05:38:43;10.52;;;9.43;;
9334;SDS011;4706;41.844;26.082;2024-02-16T05:41:09;10.48;;;9.05;;
9334;SDS011;4706;41.844;26.082;2024-02-16T05:43:34;10.07;;;9.13;;
9334;SDS011;4706;41.844;26.082;2024-02-16T05:46:00;13.45;;;9.88;;
9334;SDS011;4706;41.844;26.082;2024-02-16T05:48:26;9.70;;;8.77;;
9334;SDS011;4706;41.844;26.082;2024-02-16T05:51:01;10.63;;;9.00;;
9334;SDS011;4706;41.844;26.082;2024-02-16T05:53:27;9.82;;;8.82;;
9334;SDS011;4706;41.844;26.082;2024-02-16T05:55:53;14.15;;;9.27;;
9334;SDS011;4706;41.844;26.082;2024-02-16T05:58:20;10.55;;;9.00;;
9334;SDS011;4706;41.844;26.082;2024-02-16T06:00:46;14.25;;;9.38;;
9334;SDS011;4706;41.844;26.082;2024-02-16T06:03:13;13.98;;;9.23;;
9334;SDS011;4706;41.844;26.082;2024-02-16T06:05:39;12.00;;;9.45;;
9334;SDS011;4706;41.844;26.082;2024-02-16T06:08:06;10.18;;;9.18;;
9334;SDS011;4706;41.844;26.082;2024-02-16T06:10:32;10.73;;;9.27;;
9334;SDS011;4706;41.844;26.082;2024-02-16T06:12:59;11.43;;;10.00;;
9334;SDS011;4706;41.844;26.082;2024-02-16T06:15:24;11.13;;;10.02;;
9334;SDS011;4706;41.844;26.082;2024-02-16T06:17:50;10.00;;;9.07;;
9334;SDS011;4706;41.844;26.082;2024-02-16T06:20:16;9.65;;;8.70;;
9334;SDS011;4706;41.844;26.082;2024-02-16T06:22:42;10.52;;;8.52;;
9334;SDS011;4706;41.844;26.082;2024-02-16T06:25:08;9.52;;;8.25;;
9334;SDS011;4706;41.844;26.082;2024-02-16T06:27:34;11.57;;;7.30;;
9334;SDS011;4706;41.844;26.082;2024-02-16T06:30:00;8.35;;;7.55;;
9334;SDS011;4706;41.844;26.082;2024-02-16T06:32:25;15.05;;;11.32;;
9334;SDS011;4706;41.844;26.082;2024-02-16T06:34:52;20.40;;;17.00;;
9334;SDS011;4706;41.844;26.082;2024-02-16T06:37:18;18.50;;;15.00;;
9334;SDS011;4706;41.844;26.082;2024-02-16T06:39:43;14.88;;;12.70;;
9334;SDS011;4706;41.844;26.082;2024-02-16T06:42:09;15.98;;;12.95;;
9334;SDS011;4706;41.844;26.082;2024-02-16T06:44:40;20.58;;;18.65;;
9334;SDS011;4706;41.844;26.082;2024-02-16T06:47:05;16.38;;;12.98;;
9334;SDS011;4706;41.844;26.082;2024-02-16T06:49:31;13.13;;;9.48;;
9334;SDS011;4706;41.844;26.082;2024-02-16T06:51:57;11.30;;;9.43;;
9334;SDS011;4706;41.844;26.082;2024-02-16T06:54:22;11.00;;;9.85;;
9334;SDS011;4706;41.844;26.082;2024-02-16T06:56:49;11.13;;;9.43;;
9334;SDS011;4706;41.844;26.082;2024-02-16T06:59:16;22.60;;;13.77;;
9334;SDS011;4706;41.844;26.082;2024-02-16T07:01:42;18.20;;;14.02;;
9334;SDS011;4706;41.844;26.082;2024-02-16T07:04:08;14.23;;;11.82;;
9334;SDS011;4706;41.844;26.082;2024-02-16T07:06:34;16.33;;;10.07;;
9334;SDS011;4706;41.844;26.082;2024-02-16T07:09:00;14.95;;;10.65;;
9334;SDS011;4706;41.844;26.082;2024-02-16T07:11:26;12.38;;;8.32;;
9334;SDS011;4706;41.844;26.082;2024-02-16T07:13:52;10.25;;;8.07;;
9334;SDS011;4706;41.844;26.082;2024-02-16T07:16:18;12.05;;;8.68;;
9334;SDS011;4706;41.844;26.082;2024-02-16T07:18:44;14.43;;;9.50;;
9334;SDS011;4706;41.844;26.082;2024-02-16T07:21:09;11.45;;;9.82;;
9334;SDS011;4706;41.844;26.082;2024-02-16T07:23:35;9.18;;;8.02;;
9334;SDS011;4706;41.844;26.082;2024-02-16T07:26:01;8.55;;;7.65;;
9334;SDS011;4706;41.844;26.082;2024-02-16T07:28:27;11.07;;;8.18;;
9334;SDS011;4706;41.844;26.082;2024-02-16T07:30:52;24.23;;;18.42;;
9334;SDS011;4706;41.844;26.082;2024-02-16T07:33:18;11.23;;;8.40;;
9334;SDS011;4706;41.844;26.082;2024-02-16T07:35:44;10.43;;;8.80;;
9334;SDS011;4706;41.844;26.082;2024-02-16T07:38:10;12.05;;;7.90;;
9334;SDS011;4706;41.844;26.082;2024-02-16T07:40:35;27.33;;;12.93;;
9334;SDS011;4706;41.844;26.082;2024-02-16T07:43:02;10.32;;;9.27;;
9334;SDS011;4706;41.844;26.082;2024-02-16T07:45:28;12.43;;;9.27;;
9334;SDS011;4706;41.844;26.082;2024-02-16T07:47:54;9.98;;;9.00;;
9334;SDS011;4706;41.844;26.082;2024-02-16T07:50:20;14.05;;;9.10;;
9334;SDS011;4706;41.844;26.082;2024-02-16T07:52:46;12.52;;;10.45;;
9334;SDS011;4706;41.844;26.082;2024-02-16T07:55:12;11.27;;;9.38;;
9334;SDS011;4706;41.844;26.082;2024-02-16T07:57:38;9.85;;;8.88;;
9334;SDS011;4706;41.844;26.082;2024-02-16T08:00:04;25.65;;;18.02;;
9334;SDS011;4706;41.844;26.082;2024-02-16T08:02:32;13.73;;;9.57;;
9334;SDS011;4706;41.844;26.082;2024-02-16T08:04:58;14.27;;;11.38;;
9334;SDS011;4706;41.844;26.082;2024-02-16T08:07:24;9.63;;;8.60;;
9334;SDS011;4706;41.844;26.082;2024-02-16T08:09:49;12.63;;;8.77;;
9334;SDS011;4706;41.844;26.082;2024-02-16T08:12:15;9.80;;;8.80;;
9334;SDS011;4706;41.844;26.082;2024-02-16T08:14:41;12.65;;;7.55;;
9334;SDS011;4706;41.844;26.082;2024-02-16T08:17:13;12.95;;;9.30;;
9334;SDS011;4706;41.844;26.082;2024-02-16T08:19:38;12.45;;;10.15;;
9334;SDS011;4706;41.844;26.082;2024-02-16T08:22:05;9.82;;;8.80;;
9334;SDS011;4706;41.844;26.082;2024-02-16T08:24:35;12.57;;;10.02;;
9334;SDS011;4706;41.844;26.082;2024-02-16T08:27:01;12.32;;;10.35;;
9334;SDS011;4706;41.844;26.082;2024-02-16T08:29:26;8.77;;;7.88;;
9334;SDS011;4706;41.844;26.082;2024-02-16T08:31:52;9.25;;;7.07;;
9334;SDS011;4706;41.844;26.082;2024-02-16T08:34:19;9.63;;;7.97;;
9334;SDS011;4706;41.844;26.082;2024-02-16T08:36:45;8.70;;;7.80;;
9334;SDS011;4706;41.844;26.082;2024-02-16T08:39:12;10.57;;;8.45;;
9334;SDS011;4706;41.844;26.082;2024-02-16T08:41:38;9.07;;;8.27;;
9334;SDS011;4706;41.844;26.082;2024-02-16T08:44:04;9.18;;;7.72;;
9334;SDS011;4706;41.844;26.082;2024-02-16T08:46:29;15.73;;;7.93;;
9334;SDS011;4706;41.844;26.082;2024-02-16T08:48:55;6.93;;;6.32;;
9334;SDS011;4706;41.844;26.082;2024-02-16T08:51:21;6.97;;;6.30;;
9334;SDS011;4706;41.844;26.082;2024-02-16T08:53:47;9.32;;;6.90;;
9334;SDS011;4706;41.844;26.082;2024-02-16T08:56:12;7.72;;;6.55;;
9334;SDS011;4706;41.844;26.082;2024-02-16T08:58:38;9.77;;;8.63;;
9334;SDS011;4706;41.844;26.082;2024-02-16T09:01:04;7.75;;;6.47;;
9334;SDS011;4706;41.844;26.082;2024-02-16T09:03:30;7.65;;;6.78;;
9334;SDS011;4706;41.844;26.082;2024-02-16T09:06:02;9.13;;;8.23;;
9334;SDS011;4706;41.844;26.082;2024-02-16T09:08:28;11.82;;;10.35;;
9334;SDS011;4706;41.844;26.082;2024-02-16T09:10:58;7.05;;;6.32;;
9334;SDS011;4706;41.844;26.082;2024-02-16T09:13:24;6.53;;;5.93;;
9334;SDS011;4706;41.844;26.082;2024-02-16T09:15:50;8.73;;;7.85;;
9334;SDS011;4706;41.844;26.082;2024-02-16T09:18:17;9.20;;;8.18;;
9334;SDS011;4706;41.844;26.082;2024-02-16T09:20:42;7.57;;;6.50;;
9334;SDS011;4706;41.844;26.082;2024-02-16T09:23:08;10.63;;;7.82;;
9334;SDS011;4706;41.844;26.082;2024-02-16T09:25:34;9.30;;;8.35;;
9334;SDS011;4706;41.844;26.082;2024-02-16T09:28:00;15.95;;;12.18;;
9334;SDS011;4706;41.844;26.082;2024-02-16T09:30:25;9.70;;;7.45;;
9334;SDS011;4706;41.844;26.082;2024-02-16T09:32:51;7.88;;;7.07;;
9334;SDS011;4706;41.844;26.082;2024-02-16T09:35:17;11.20;;;8.95;;
9334;SDS011;4706;41.844;26.082;2024-02-16T09:37:43;6.80;;;5.85;;
9334;SDS011;4706;41.844;26.082;2024-02-16T09:40:08;7.32;;;6.63;;
9334;SDS011;4706;41.844;26.082;2024-02-16T09:42:37;7.22;;;6.50;;
9334;SDS011;4706;41.844;26.082;2024-02-16T09:45:04;6.10;;;5.53;;
9334;SDS011;4706;41.844;26.082;2024-02-16T09:47:32;9.95;;;7.18;;
9334;SDS011;4706;41.844;26.082;2024-02-16T09:50:00;9.52;;;7.13;;
9334;SDS011;4706;41.844;26.082;2024-02-16T09:52:26;8.02;;;7.22;;
9334;SDS011;4706;41.844;26.082;2024-02-16T09:54:52;6.70;;;6.10;;
9334;SDS011;4706;41.844;26.082;2024-02-16T09:57:17;9.45;;;6.80;;
9334;SDS011;4706;41.844;26.082;2024-02-16T09:59:43;7.13;;;6.13;;
9334;SDS011;4706;41.844;26.082;2024-02-16T10:02:09;7.15;;;6.43;;
9334;SDS011;4706;41.844;26.082;2024-02-16T10:04:35;10.35;;;8.13;;
9334;SDS011;4706;41.844;26.082;2024-02-16T10:07:01;8.45;;;7.05;;
9334;SDS011;4706;41.844;26.082;2024-02-16T10:09:27;8.05;;;7.35;;
9334;SDS011;4706;41.844;26.082;2024-02-16T10:11:59;10.50;;;7.85;;
9334;SDS011;4706;41.844;26.082;2024-02-16T10:14:25;9.45;;;7.65;;
9334;SDS011;4706;41.844;26.082;2024-02-16T10:17:04;7.93;;;7.22;;
9334;SDS011;4706;41.844;26.082;2024-02-16T10:19:31;8.05;;;7.28;;
9334;SDS011;4706;41.844;26.082;2024-02-16T10:22:10;6.88;;;6.18;;
9334;SDS011;4706;41.844;26.082;2024-02-16T10:24:37;7.60;;;6.85;;
9334;SDS011;4706;41.844;26.082;2024-02-16T10:27:17;7.55;;;6.53;;
9334;SDS011;4706;41.844;26.082;2024-02-16T10:29:52;8.82;;;6.82;;
9334;SDS011;4706;41.844;26.082;2024-02-16T10:32:19;6.18;;;5.45;;
9334;SDS011;4706;41.844;26.082;2024-02-16T10:34:45;7.18;;;6.40;;
9334;SDS011;4706;41.844;26.082;2024-02-16T10:37:11;7.57;;;6.70;;
9334;SDS011;4706;41.844;26.082;2024-02-16T10:39:37;7.45;;;6.60;;
9334;SDS011;4706;41.844;26.082;2024-02-16T10:42:06;6.88;;;6.10;;
9334;SDS011;4706;41.844;26.082;2024-02-16T10:44:32;7.07;;;5.80;;
9334;SDS011;4706;41.844;26.082;2024-02-16T10:47:01;7.38;;;6.68;;
9334;SDS011;4706;41.844;26.082;2024-02-16T10:49:26;6.00;;;5.40;;
9334;SDS011;4706;41.844;26.082;2024-02-16T10:51:52;5.72;;;5.10;;
9334;SDS011;4706;41.844;26.082;2024-02-16T10:54:22;6.75;;;5.10;;
9334;SDS011;4706;41.844;26.082;2024-02-16T10:56:53;5.95;;;5.22;;
9334;SDS011;4706;41.844;26.082;2024-02-16T10:59:19;6.38;;;4.63;;
9334;SDS011;4706;41.844;26.082;2024-02-16T11:01:45;7.10;;;5.07;;
9334;SDS011;4706;41.844;26.082;2024-02-16T11:04:11;6.28;;;5.68;;
9334;SDS011;4706;41.844;26.082;2024-02-16T11:06:47;5.07;;;4.57;;
9334;SDS011;4706;41.844;26.082;2024-02-16T11:11:53;5.47;;;4.95;;
9334;SDS011;4706;41.844;26.082;2024-02-16T11:14:39;5.30;;;4.18;;
9334;SDS011;4706;41.844;26.082;2024-02-16T11:17:09;6.03;;;4.97;;
9334;SDS011;4706;41.844;26.082;2024-02-16T11:19:37;7.32;;;6.15;;
9334;SDS011;4706;41.844;26.082;2024-02-16T11:22:05;7.80;;;6.60;;
9334;SDS011;4706;41.844;26.082;2024-02-16T11:24:33;7.65;;;6.20;;
9334;SDS011;4706;41.844;26.082;2024-02-16T11:27:07;6.13;;;5.53;;
9334;SDS011;4706;41.844;26.082;2024-02-16T11:29:35;6.57;;;5.97;;
9334;SDS011;4706;41.844;26.082;2024-02-16T11:32:01;7.90;;;6.70;;
9334;SDS011;4706;41.844;26.082;2024-02-16T11:34:28;5.78;;;5.03;;
9334;SDS011;4706;41.844;26.082;2024-02-16T11:36:58;5.18;;;4.70;;
9334;SDS011;4706;41.844;26.082;2024-02-16T11:39:25;6.00;;;5.40;;
9334;SDS011;4706;41.844;26.082;2024-02-16T11:42:07;5.22;;;4.72;;
9334;SDS011;4706;41.844;26.082;2024-02-16T11:44:37;6.43;;;5.13;;
9334;SDS011;4706;41.844;26.082;2024-02-16T11:47:05;19.20;;;6.65;;
9334;SDS011;4706;41.844;26.082;2024-02-16T11:49:34;6.22;;;5.13;;
9334;SDS011;4706;41.844;26.082;2024-02-16T11:51:59;8.85;;;5.57;;
9334;SDS011;4706;41.844;26.082;2024-02-16T11:54:25;9.40;;;4.88;;
9334;SDS011;4706;41.844;26.082;2024-02-16T11:56:51;4.50;;;4.10;;
9334;SDS011;4706;41.844;26.082;2024-02-16T11:59:17;5.70;;;4.80;;
9334;SDS011;4706;41.844;26.082;2024-02-16T12:01:50;4.82;;;4.32;;
9334;SDS011;4706;41.844;26.082;2024-02-16T12:06:56;4.78;;;4.22;;
9334;SDS011;4706;41.844;26.082;2024-02-16T12:09:23;8.70;;;7.82;;
9334;SDS011;4706;41.844;26.082;2024-02-16T12:11:50;8.57;;;7.13;;
9334;SDS011;4706;41.844;26.082;2024-02-16T12:14:17;5.00;;;4.60;;
9334;SDS011;4706;41.844;26.082;2024-02-16T12:16:47;5.15;;;4.75;;
9334;SDS011;4706;41.844;26.082;2024-02-16T12:19:15;6.30;;;5.20;;
9334;SDS011;4706;41.844;26.082;2024-02-16T12:21:41;4.80;;;4.40;;
9334;SDS011;4706;41.844;26.082;2024-02-16T12:24:07;4.70;;;4.30;;
9334;SDS011;4706;41.844;26.082;2024-02-16T12:26:32;5.57;;;5.05;;
9334;SDS011;4706;41.844;26.082;2024-02-16T12:28:58;5.45;;;4.70;;
9334;SDS011;4706;41.844;26.082;2024-02-16T12:31:23;5.38;;;4.78;;
9334;SDS011;4706;41.844;26.082;2024-02-16T12:33:51;8.70;;;5.20;;
9334;SDS011;4706;41.844;26.082;2024-02-16T12:36:17;6.18;;;5.55;;
9334;SDS011;4706;41.844;26.082;2024-02-16T12:38:43;5.53;;;5.03;;
9334;SDS011;4706;41.844;26.082;2024-02-16T12:41:09;5.30;;;4.72;;
9334;SDS011;4706;41.844;26.082;2024-02-16T12:43:35;6.00;;;5.40;;
9334;SDS011;4706;41.844;26.082;2024-02-16T12:46:00;6.60;;;6.00;;
9334;SDS011;4706;41.844;26.082;2024-02-16T12:48:29;12.85;;;7.57;;
9334;SDS011;4706;41.844;26.082;2024-02-16T12:50:54;11.38;;;9.73;;
9334;SDS011;4706;41.844;26.082;2024-02-16T12:53:20;18.95;;;15.63;;
9334;SDS011;4706;41.844;26.082;2024-02-16T12:55:49;14.82;;;11.73;;
9334;SDS011;4706;41.844;26.082;2024-02-16T12:58:15;22.98;;;16.55;;
9334;SDS011;4706;41.844;26.082;2024-02-16T13:00:41;12.18;;;10.77;;
9334;SDS011;4706;41.844;26.082;2024-02-16T13:03:06;9.77;;;8.75;;
9334;SDS011;4706;41.844;26.082;2024-02-16T13:05:32;11.55;;;9.05;;
9334;SDS011;4706;41.844;26.082;2024-02-16T13:07:58;6.82;;;5.95;;
9334;SDS011;4706;41.844;26.082;2024-02-16T13:10:23;7.80;;;7.07;;
9334;SDS011;4706;41.844;26.082;2024-02-16T13:12:49;7.18;;;5.85;;
9334;SDS011;4706;41.844;26.082;2024-02-16T13:15:14;7.45;;;6.20;;
9334;SDS011;4706;41.844;26.082;2024-02-16T13:17:40;6.28;;;5.47;;
9334;SDS011;4706;41.844;26.082;2024-02-16T13:20:06;6.88;;;5.78;;
9334;SDS011;4706;41.844;26.082;2024-02-16T13:22:37;6.10;;;5.50;;
9334;SDS011;4706;41.844;26.082;2024-02-16T13:25:03;6.50;;;5.85;;
9334;SDS011;4706;41.844;26.082;2024-02-16T13:27:30;5.95;;;5.45;;
9334;SDS011;4706;41.844;26.082;2024-02-16T13:29:57;6.95;;;5.78;;
9334;SDS011;4706;41.844;26.082;2024-02-16T13:32:22;5.47;;;4.97;;
9334;SDS011;4706;41.844;26.082;2024-02-16T13:34:48;6.45;;;5.03;;
9334;SDS011;4706;41.844;26.082;2024-02-16T13:37:13;6.50;;;5.78;;
9334;SDS011;4706;41.844;26.082;2024-02-16T13:39:39;7.82;;;5.72;;
9334;SDS011;4706;41.844;26.082;2024-02-16T13:42:04;6.15;;;5.65;;
9334;SDS011;4706;41.844;26.082;2024-02-16T13:44:30;6.78;;;6.15;;
9334;SDS011;4706;41.844;26.082;2024-02-16T13:46:56;5.55;;;5.13;;
9334;SDS011;4706;41.844;26.082;2024-02-16T13:49:22;5.57;;;5.07;;
9334;SDS011;4706;41.844;26.082;2024-02-16T13:51:48;12.38;;;11.30;;
9334;SDS011;4706;41.844;26.082;2024-02-16T13:54:13;5.72;;;5.22;;
9334;SDS011;4706;41.844;26.082;2024-02-16T13:56:39;6.53;;;5.85;;
9334;SDS011;4706;41.844;26.082;2024-02-16T13:59:05;6.30;;;5.70;;
9334;SDS011;4706;41.844;26.082;2024-02-16T14:01:32;7.43;;;6.72;;
9334;SDS011;4706;41.844;26.082;2024-02-16T14:03:59;7.22;;;6.53;;
9334;SDS011;4706;41.844;26.082;2024-02-16T14:06:25;8.77;;;7.80;;
9334;SDS011;4706;41.844;26.082;2024-02-16T14:08:51;7.47;;;6.78;;
9334;SDS011;4706;41.844;26.082;2024-02-16T14:11:20;7.45;;;6.63;;
9334;SDS011;4706;41.844;26.082;2024-02-16T14:13:47;7.10;;;6.28;;
9334;SDS011;4706;41.844;26.082;2024-02-16T14:16:13;7.55;;;6.70;;
9334;SDS011;4706;41.844;26.082;2024-02-16T14:18:39;7.47;;;6.32;;
9334;SDS011;4706;41.844;26.082;2024-02-16T14:21:05;6.80;;;6.05;;
9334;SDS011;4706;41.844;26.082;2024-02-16T14:23:30;7.35;;;6.65;;
9334;SDS011;4706;41.844;26.082;2024-02-16T14:25:57;8.30;;;6.22;;
9334;SDS011;4706;41.844;26.082;2024-02-16T14:28:23;9.73;;;8.73;;
9334;SDS011;4706;41.844;26.082;2024-02-16T14:30:48;9.80;;;8.80;;
9334;SDS011;4706;41.844;26.082;2024-02-16T14:33:15;8.88;;;8.00;;
9334;SDS011;4706;41.844;26.082;2024-02-16T14:35:42;9.68;;;8.25;;
9334;SDS011;4706;41.844;26.082;2024-02-16T14:38:08;10.05;;;9.05;;
9334;SDS011;4706;41.844;26.082;2024-02-16T14:40:34;11.18;;;10.07;;
9334;SDS011;4706;41.844;26.082;2024-02-16T14:43:00;11.77;;;10.23;;
9334;SDS011;4706;41.844;26.082;2024-02-16T14:45:26;10.25;;;9.02;;
9334;SDS011;4706;41.844;26.082;2024-02-16T14:47:51;11.77;;;10.57;;
9334;SDS011;4706;41.844;26.082;2024-02-16T14:50:17;9.45;;;8.55;;
9334;SDS011;4706;41.844;26.082;2024-02-16T14:52:43;9.90;;;8.93;;
9334;SDS011;4706;41.844;26.082;2024-02-16T14:55:09;14.68;;;11.75;;
9334;SDS011;4706;41.844;26.082;2024-02-16T14:57:38;12.10;;;9.55;;